sensor_id;sensor_type;location;lat;lon;timestamp;temperature;humidity
64499;SHT31;51087;55.718;21.122;2022-10-23T00:00:37;12.10;99.99
64499;SHT31;51087;55.718;21.122;2022-10-23T00:03:03;12.13;99.99
64499;SHT31;51087;55.718;21.122;2022-10-23T00:05:28;12.12;99.99
64499;SHT31;51087;55.718;21.122;2022-10-23T00:07:56;12.13;99.99
64499;SHT31;51087;55.718;21.122;2022-10-23T00:10:24;12.16;99.99
64499;SHT31;51087;55.718;21.122;2022-10-23T00:12:50;12.15;99.99
64499;SHT31;51087;55.718;21.122;2022-10-23T00:15:19;12.17;99.99
64499;SHT31;51087;55.718;21.122;2022-10-23T00:17:45;12.12;99.99
64499;SHT31;51087;55.718;21.122;2022-10-23T00:20:11;12.13;99.99
64499;SHT31;51087;55.718;21.122;2022-10-23T00:22:37;12.13;99.99
64499;SHT31;51087;55.718;21.122;2022-10-23T00:25:04;12.17;99.99
64499;SHT31;51087;55.718;21.122;2022-10-23T00:27:30;12.16;99.99
64499;SHT31;51087;55.718;21.122;2022-10-23T00:29:56;12.15;99.99
64499;SHT31;51087;55.718;21.122;2022-10-23T00:32:21;12.17;99.99
64499;SHT31;51087;55.718;21.122;2022-10-23T00:34:47;12.13;99.99
64499;SHT31;51087;55.718;21.122;2022-10-23T00:37:12;12.17;99.99
64499;SHT31;51087;55.718;21.122;2022-10-23T00:39:38;12.16;99.99
64499;SHT31;51087;55.718;21.122;2022-10-23T00:42:03;12.17;99.99
64499;SHT31;51087;55.718;21.122;2022-10-23T00:46:55;12.16;99.99
64499;SHT31;51087;55.718;21.122;2022-10-23T00:49:20;12.17;99.99
64499;SHT31;51087;55.718;21.122;2022-10-23T00:51:59;12.22;99.99
64499;SHT31;51087;55.718;21.122;2022-10-23T00:54:28;12.16;99.99
64499;SHT31;51087;55.718;21.122;2022-10-23T00:56:57;12.16;99.99
64499;SHT31;51087;55.718;21.122;2022-10-23T00:59:23;12.16;99.99
64499;SHT31;51087;55.718;21.122;2022-10-23T01:01:49;12.17;99.99
64499;SHT31;51087;55.718;21.122;2022-10-23T01:04:15;12.17;99.99
64499;SHT31;51087;55.718;21.122;2022-10-23T01:06:50;12.16;99.89
64499;SHT31;51087;55.718;21.122;2022-10-23T01:09:25;12.12;99.96
64499;SHT31;51087;55.718;21.122;2022-10-23T01:15:22;12.13;99.95
64499;SHT31;51087;55.718;21.122;2022-10-23T01:17:58;12.07;99.99
64499;SHT31;51087;55.718;21.122;2022-10-23T01:20:46;12.06;99.99
64499;SHT31;51087;55.718;21.122;2022-10-23T01:28:41;12.13;99.58
64499;SHT31;51087;55.718;21.122;2022-10-23T01:31:13;12.12;99.62
64499;SHT31;51087;55.718;21.122;2022-10-23T01:33:45;12.12;99.38
64499;SHT31;51087;55.718;21.122;2022-10-23T01:36:14;12.17;99.10
64499;SHT31;51087;55.718;21.122;2022-10-23T01:39:00;12.15;99.09
64499;SHT31;51087;55.718;21.122;2022-10-23T01:42:03;12.13;98.54
64499;SHT31;51087;55.718;21.122;2022-10-23T01:44:36;12.15;98.17
64499;SHT31;51087;55.718;21.122;2022-10-23T01:47:06;12.15;98.34
64499;SHT31;51087;55.718;21.122;2022-10-23T01:49:35;12.17;98.28
64499;SHT31;51087;55.718;21.122;2022-10-23T01:52:05;12.16;98.12
64499;SHT31;51087;55.718;21.122;2022-10-23T01:54:35;12.17;98.16
64499;SHT31;51087;55.718;21.122;2022-10-23T01:57:05;12.19;98.40
64499;SHT31;51087;55.718;21.122;2022-10-23T01:59:35;12.19;98.33
64499;SHT31;51087;55.718;21.122;2022-10-23T02:02:02;12.20;98.05
64499;SHT31;51087;55.718;21.122;2022-10-23T02:04:50;12.19;97.00
64499;SHT31;51087;55.718;21.122;2022-10-23T02:07:19;12.20;96.42
64499;SHT31;51087;55.718;21.122;2022-10-23T02:09:44;12.17;96.37
64499;SHT31;51087;55.718;21.122;2022-10-23T02:12:21;12.19;96.61
64499;SHT31;51087;55.718;21.122;2022-10-23T02:14:52;12.16;97.15
64499;SHT31;51087;55.718;21.122;2022-10-23T02:21:11;12.15;97.71
64499;SHT31;51087;55.718;21.122;2022-10-23T02:23:44;12.15;97.92
64499;SHT31;51087;55.718;21.122;2022-10-23T02:26:24;12.10;98.36
64499;SHT31;51087;55.718;21.122;2022-10-23T02:28:56;12.10;98.28
64499;SHT31;51087;55.718;21.122;2022-10-23T02:31:23;12.07;96.72
64499;SHT31;51087;55.718;21.122;2022-10-23T02:33:48;12.07;96.08
64499;SHT31;51087;55.718;21.122;2022-10-23T02:36:18;12.03;95.74
64499;SHT31;51087;55.718;21.122;2022-10-23T02:38:44;12.05;95.44
64499;SHT31;51087;55.718;21.122;2022-10-23T02:44:20;12.03;95.51
64499;SHT31;51087;55.718;21.122;2022-10-23T02:52:18;12.06;95.42
64499;SHT31;51087;55.718;21.122;2022-10-23T02:55:05;12.06;93.83
64499;SHT31;51087;55.718;21.122;2022-10-23T02:57:34;12.07;92.80
64499;SHT31;51087;55.718;21.122;2022-10-23T03:00:10;12.06;92.87
64499;SHT31;51087;55.718;21.122;2022-10-23T03:02:47;12.02;92.86
64499;SHT31;51087;55.718;21.122;2022-10-23T03:05:22;12.02;92.92
64499;SHT31;51087;55.718;21.122;2022-10-23T03:07:48;11.99;93.24
64499;SHT31;51087;55.718;21.122;2022-10-23T03:10:14;11.98;93.13
64499;SHT31;51087;55.718;21.122;2022-10-23T03:12:40;11.99;93.26
64499;SHT31;51087;55.718;21.122;2022-10-23T03:15:06;11.98;93.42
64499;SHT31;51087;55.718;21.122;2022-10-23T03:17:32;11.96;93.57
64499;SHT31;51087;55.718;21.122;2022-10-23T03:19:58;11.93;93.15
64499;SHT31;51087;55.718;21.122;2022-10-23T03:22:23;11.98;92.76
64499;SHT31;51087;55.718;21.122;2022-10-23T03:24:49;11.95;92.72
64499;SHT31;51087;55.718;21.122;2022-10-23T03:27:14;12.00;92.59
64499;SHT31;51087;55.718;21.122;2022-10-23T03:29:41;12.00;92.62
64499;SHT31;51087;55.718;21.122;2022-10-23T03:32:06;11.96;92.94
64499;SHT31;51087;55.718;21.122;2022-10-23T03:34:32;11.98;93.32
64499;SHT31;51087;55.718;21.122;2022-10-23T03:36:59;11.95;93.64
64499;SHT31;51087;55.718;21.122;2022-10-23T03:39:24;11.93;93.95
64499;SHT31;51087;55.718;21.122;2022-10-23T03:41:50;11.93;94.42
64499;SHT31;51087;55.718;21.122;2022-10-23T03:44:16;11.89;94.87
64499;SHT31;51087;55.718;21.122;2022-10-23T03:46:41;11.88;94.87
64499;SHT31;51087;55.718;21.122;2022-10-23T03:49:07;11.88;94.90
64499;SHT31;51087;55.718;21.122;2022-10-23T03:51:33;11.90;95.07
64499;SHT31;51087;55.718;21.122;2022-10-23T03:53:59;11.85;95.51
64499;SHT31;51087;55.718;21.122;2022-10-23T03:56:24;11.82;95.80
64499;SHT31;51087;55.718;21.122;2022-10-23T03:58:50;11.82;96.02
64499;SHT31;51087;55.718;21.122;2022-10-23T04:01:15;11.78;95.43
64499;SHT31;51087;55.718;21.122;2022-10-23T04:03:40;11.79;95.27
64499;SHT31;51087;55.718;21.122;2022-10-23T04:06:06;11.82;95.62
64499;SHT31;51087;55.718;21.122;2022-10-23T04:08:31;11.81;95.77
64499;SHT31;51087;55.718;21.122;2022-10-23T04:10:57;11.83;95.84
64499;SHT31;51087;55.718;21.122;2022-10-23T04:13:22;11.78;95.88
64499;SHT31;51087;55.718;21.122;2022-10-23T04:15:49;11.78;96.02
64499;SHT31;51087;55.718;21.122;2022-10-23T04:18:16;11.74;95.98
64499;SHT31;51087;55.718;21.122;2022-10-23T04:20:41;11.71;96.06
64499;SHT31;51087;55.718;21.122;2022-10-23T04:23:07;11.71;96.58
64499;SHT31;51087;55.718;21.122;2022-10-23T04:25:32;11.68;96.62
64499;SHT31;51087;55.718;21.122;2022-10-23T04:27:58;11.65;96.86
64499;SHT31;51087;55.718;21.122;2022-10-23T04:30:23;11.64;96.31
64499;SHT31;51087;55.718;21.122;2022-10-23T04:32:49;11.60;96.42
64499;SHT31;51087;55.718;21.122;2022-10-23T04:35:17;11.62;96.46
64499;SHT31;51087;55.718;21.122;2022-10-23T04:37:43;11.60;96.21
64499;SHT31;51087;55.718;21.122;2022-10-23T04:40:09;11.61;96.08
64499;SHT31;51087;55.718;21.122;2022-10-23T04:42:34;11.57;96.18
64499;SHT31;51087;55.718;21.122;2022-10-23T04:45:00;11.61;96.12
64499;SHT31;51087;55.718;21.122;2022-10-23T04:47:25;11.58;96.00
64499;SHT31;51087;55.718;21.122;2022-10-23T04:49:51;11.57;95.99
64499;SHT31;51087;55.718;21.122;2022-10-23T04:52:16;11.58;96.17
64499;SHT31;51087;55.718;21.122;2022-10-23T04:54:42;11.60;95.72
64499;SHT31;51087;55.718;21.122;2022-10-23T04:57:07;11.57;95.63
64499;SHT31;51087;55.718;21.122;2022-10-23T04:59:32;11.60;95.58
64499;SHT31;51087;55.718;21.122;2022-10-23T05:01:58;11.60;95.03
64499;SHT31;51087;55.718;21.122;2022-10-23T05:04:23;11.61;95.05
64499;SHT31;51087;55.718;21.122;2022-10-23T05:06:49;11.64;94.89
64499;SHT31;51087;55.718;21.122;2022-10-23T05:09:14;11.61;94.59
64499;SHT31;51087;55.718;21.122;2022-10-23T05:11:40;11.60;93.95
64499;SHT31;51087;55.718;21.122;2022-10-23T05:14:05;11.61;94.03
64499;SHT31;51087;55.718;21.122;2022-10-23T05:19:04;11.58;93.96
64499;SHT31;51087;55.718;21.122;2022-10-23T05:21:32;11.57;94.14
64499;SHT31;51087;55.718;21.122;2022-10-23T05:23:59;11.54;93.61
64499;SHT31;51087;55.718;21.122;2022-10-23T05:26:26;11.54;93.30
64499;SHT31;51087;55.718;21.122;2022-10-23T05:28:52;11.50;92.89
64499;SHT31;51087;55.718;21.122;2022-10-23T05:31:18;11.51;92.71
64499;SHT31;51087;55.718;21.122;2022-10-23T05:33:44;11.54;91.93
64499;SHT31;51087;55.718;21.122;2022-10-23T05:36:11;11.52;91.94
64499;SHT31;51087;55.718;21.122;2022-10-23T05:38:37;11.60;91.79
64499;SHT31;51087;55.718;21.122;2022-10-23T05:41:02;11.64;92.04
64499;SHT31;51087;55.718;21.122;2022-10-23T05:43:28;11.60;92.48
64499;SHT31;51087;55.718;21.122;2022-10-23T05:45:56;11.65;92.75
64499;SHT31;51087;55.718;21.122;2022-10-23T05:48:21;11.64;92.49
64499;SHT31;51087;55.718;21.122;2022-10-23T05:50:47;11.68;91.96
64499;SHT31;51087;55.718;21.122;2022-10-23T05:53:12;11.67;92.09
64499;SHT31;51087;55.718;21.122;2022-10-23T05:55:38;11.67;91.60
64499;SHT31;51087;55.718;21.122;2022-10-23T05:58:04;11.68;91.12
64499;SHT31;51087;55.718;21.122;2022-10-23T06:00:29;11.69;91.06
64499;SHT31;51087;55.718;21.122;2022-10-23T06:02:55;11.69;91.23
64499;SHT31;51087;55.718;21.122;2022-10-23T06:05:20;11.71;91.29
64499;SHT31;51087;55.718;21.122;2022-10-23T06:07:46;11.69;91.12
64499;SHT31;51087;55.718;21.122;2022-10-23T06:10:12;11.74;90.87
64499;SHT31;51087;55.718;21.122;2022-10-23T06:12:37;11.77;90.72
64499;SHT31;51087;55.718;21.122;2022-10-23T06:15:03;11.75;90.61
64499;SHT31;51087;55.718;21.122;2022-10-23T06:17:29;11.75;90.34
64499;SHT31;51087;55.718;21.122;2022-10-23T06:19:55;11.81;90.17
64499;SHT31;51087;55.718;21.122;2022-10-23T06:22:26;11.79;90.25
64499;SHT31;51087;55.718;21.122;2022-10-23T06:24:52;11.79;90.11
64499;SHT31;51087;55.718;21.122;2022-10-23T06:27:17;11.82;89.49
64499;SHT31;51087;55.718;21.122;2022-10-23T06:29:43;11.85;89.29
64499;SHT31;51087;55.718;21.122;2022-10-23T06:32:08;11.89;89.24
64499;SHT31;51087;55.718;21.122;2022-10-23T06:34:34;11.85;89.03
64499;SHT31;51087;55.718;21.122;2022-10-23T06:36:59;11.88;88.61
64499;SHT31;51087;55.718;21.122;2022-10-23T06:39:25;11.89;88.83
64499;SHT31;51087;55.718;21.122;2022-10-23T06:41:50;11.92;89.12
64499;SHT31;51087;55.718;21.122;2022-10-23T06:44:16;11.90;89.10
64499;SHT31;51087;55.718;21.122;2022-10-23T06:46:41;11.90;88.35
64499;SHT31;51087;55.718;21.122;2022-10-23T06:49:07;11.95;88.14
64499;SHT31;51087;55.718;21.122;2022-10-23T06:51:32;11.98;87.65
64499;SHT31;51087;55.718;21.122;2022-10-23T06:53:57;12.02;86.81
64499;SHT31;51087;55.718;21.122;2022-10-23T06:56:23;12.02;86.84
64499;SHT31;51087;55.718;21.122;2022-10-23T06:58:53;12.05;86.22
64499;SHT31;51087;55.718;21.122;2022-10-23T07:01:19;12.02;86.21
64499;SHT31;51087;55.718;21.122;2022-10-23T07:03:44;12.06;86.19
64499;SHT31;51087;55.718;21.122;2022-10-23T07:06:10;12.13;86.06
64499;SHT31;51087;55.718;21.122;2022-10-23T07:08:36;12.19;86.00
64499;SHT31;51087;55.718;21.122;2022-10-23T07:11:06;12.17;86.28
64499;SHT31;51087;55.718;21.122;2022-10-23T07:13:33;12.19;85.83
64499;SHT31;51087;55.718;21.122;2022-10-23T07:15:59;12.20;85.83
64499;SHT31;51087;55.718;21.122;2022-10-23T07:18:32;12.16;84.97
64499;SHT31;51087;55.718;21.122;2022-10-23T07:20:57;12.19;85.10
64499;SHT31;51087;55.718;21.122;2022-10-23T07:23:23;12.20;84.32
64499;SHT31;51087;55.718;21.122;2022-10-23T07:25:48;12.23;84.42
64499;SHT31;51087;55.718;21.122;2022-10-23T07:28:14;12.29;85.52
64499;SHT31;51087;55.718;21.122;2022-10-23T07:30:39;12.29;86.21
64499;SHT31;51087;55.718;21.122;2022-10-23T07:33:05;12.32;86.72
64499;SHT31;51087;55.718;21.122;2022-10-23T07:35:31;12.34;87.43
64499;SHT31;51087;55.718;21.122;2022-10-23T07:37:58;12.37;87.63
64499;SHT31;51087;55.718;21.122;2022-10-23T07:40:24;12.36;88.06
64499;SHT31;51087;55.718;21.122;2022-10-23T07:42:49;12.45;88.23
64499;SHT31;51087;55.718;21.122;2022-10-23T07:45:15;12.45;87.32
64499;SHT31;51087;55.718;21.122;2022-10-23T07:47:40;12.54;87.09
64499;SHT31;51087;55.718;21.122;2022-10-23T07:50:06;12.61;87.08
64499;SHT31;51087;55.718;21.122;2022-10-23T07:52:34;12.55;87.17
64499;SHT31;51087;55.718;21.122;2022-10-23T07:55:00;12.65;87.08
64499;SHT31;51087;55.718;21.122;2022-10-23T07:57:25;12.64;86.65
64499;SHT31;51087;55.718;21.122;2022-10-23T07:59:51;12.67;86.58
64499;SHT31;51087;55.718;21.122;2022-10-23T08:02:16;12.67;86.80
64499;SHT31;51087;55.718;21.122;2022-10-23T08:04:42;12.67;85.87
64499;SHT31;51087;55.718;21.122;2022-10-23T08:07:07;12.68;85.31
64499;SHT31;51087;55.718;21.122;2022-10-23T08:09:33;12.67;85.46
64499;SHT31;51087;55.718;21.122;2022-10-23T08:12:00;12.72;85.54
64499;SHT31;51087;55.718;21.122;2022-10-23T08:14:25;12.81;85.69
64499;SHT31;51087;55.718;21.122;2022-10-23T08:16:51;12.82;85.45
64499;SHT31;51087;55.718;21.122;2022-10-23T08:19:17;12.87;84.80
64499;SHT31;51087;55.718;21.122;2022-10-23T08:21:42;12.93;84.36
64499;SHT31;51087;55.718;21.122;2022-10-23T08:24:09;13.09;84.01
64499;SHT31;51087;55.718;21.122;2022-10-23T08:26:38;13.26;83.20
64499;SHT31;51087;55.718;21.122;2022-10-23T08:29:03;13.23;83.56
64499;SHT31;51087;55.718;21.122;2022-10-23T08:31:29;13.19;83.77
64499;SHT31;51087;55.718;21.122;2022-10-23T08:33:54;13.22;82.53
64499;SHT31;51087;55.718;21.122;2022-10-23T08:36:21;13.22;81.66
64499;SHT31;51087;55.718;21.122;2022-10-23T08:38:47;13.13;81.47
64499;SHT31;51087;55.718;21.122;2022-10-23T08:43:57;13.23;81.91
64499;SHT31;51087;55.718;21.122;2022-10-23T08:46:28;13.33;80.82
64499;SHT31;51087;55.718;21.122;2022-10-23T08:50:02;13.43;79.94
64499;SHT31;51087;55.718;21.122;2022-10-23T08:52:06;13.35;79.91
64499;SHT31;51087;55.718;21.122;2022-10-23T08:57:39;13.36;82.25
64499;SHT31;51087;55.718;21.122;2022-10-23T09:00:12;13.36;82.15
64499;SHT31;51087;55.718;21.122;2022-10-23T09:02:43;13.20;82.50
64499;SHT31;51087;55.718;21.122;2022-10-23T09:18:56;13.12;81.92
64499;SHT31;51087;55.718;21.122;2022-10-23T09:21:28;13.09;82.78
64499;SHT31;51087;55.718;21.122;2022-10-23T09:23:54;12.99;83.07
64499;SHT31;51087;55.718;21.122;2022-10-23T09:26:20;12.89;82.35
64499;SHT31;51087;55.718;21.122;2022-10-23T09:28:49;12.96;82.86
64499;SHT31;51087;55.718;21.122;2022-10-23T09:31:16;12.99;82.91
64499;SHT31;51087;55.718;21.122;2022-10-23T09:33:56;13.03;82.89
64499;SHT31;51087;55.718;21.122;2022-10-23T09:36:22;13.06;82.63
64499;SHT31;51087;55.718;21.122;2022-10-23T09:38:51;13.10;82.06
64499;SHT31;51087;55.718;21.122;2022-10-23T09:41:28;13.10;80.66
64499;SHT31;51087;55.718;21.122;2022-10-23T09:44:00;13.08;79.44
64499;SHT31;51087;55.718;21.122;2022-10-23T09:46:39;13.02;79.51
64499;SHT31;51087;55.718;21.122;2022-10-23T09:49:10;12.99;80.49
64499;SHT31;51087;55.718;21.122;2022-10-23T09:51:38;12.91;82.26
64499;SHT31;51087;55.718;21.122;2022-10-23T09:54:14;12.85;82.70
64499;SHT31;51087;55.718;21.122;2022-10-23T09:56:46;12.87;82.70
64499;SHT31;51087;55.718;21.122;2022-10-23T10:04:11;12.93;81.48
64499;SHT31;51087;55.718;21.122;2022-10-23T10:06:37;12.99;80.88
64499;SHT31;51087;55.718;21.122;2022-10-23T10:09:09;13.01;81.37
64499;SHT31;51087;55.718;21.122;2022-10-23T10:11:43;12.89;81.46
64499;SHT31;51087;55.718;21.122;2022-10-23T10:25:40;12.65;82.39
64499;SHT31;51087;55.718;21.122;2022-10-23T10:36:50;12.98;80.54
64499;SHT31;51087;55.718;21.122;2022-10-23T10:42:28;13.15;79.90
64499;SHT31;51087;55.718;21.122;2022-10-23T10:51:05;12.77;80.87
64499;SHT31;51087;55.718;21.122;2022-10-23T10:56:14;12.65;80.83
64499;SHT31;51087;55.718;21.122;2022-10-23T10:58:55;12.72;80.67
64499;SHT31;51087;55.718;21.122;2022-10-23T11:01:30;12.74;80.56
64499;SHT31;51087;55.718;21.122;2022-10-23T11:04:25;12.78;80.78
64499;SHT31;51087;55.718;21.122;2022-10-23T11:06:53;12.71;81.07
64499;SHT31;51087;55.718;21.122;2022-10-23T11:09:24;12.75;80.39
64499;SHT31;51087;55.718;21.122;2022-10-23T11:11:50;12.75;80.07
64499;SHT31;51087;55.718;21.122;2022-10-23T11:14:28;12.75;79.14
64499;SHT31;51087;55.718;21.122;2022-10-23T11:17:24;12.80;79.33
64499;SHT31;51087;55.718;21.122;2022-10-23T11:19:56;12.89;79.80
64499;SHT31;51087;55.718;21.122;2022-10-23T11:38:46;12.95;78.07
64499;SHT31;51087;55.718;21.122;2022-10-23T11:41:24;13.05;77.63
64499;SHT31;51087;55.718;21.122;2022-10-23T11:43:58;13.47;77.12
64499;SHT31;51087;55.718;21.122;2022-10-23T11:46:36;13.60;76.46
64499;SHT31;51087;55.718;21.122;2022-10-23T11:49:04;13.64;76.41
64499;SHT31;51087;55.718;21.122;2022-10-23T11:51:38;13.68;76.46
64499;SHT31;51087;55.718;21.122;2022-10-23T11:54:19;13.56;76.22
64499;SHT31;51087;55.718;21.122;2022-10-23T12:02:28;13.19;77.59
64499;SHT31;51087;55.718;21.122;2022-10-23T12:04:58;13.09;78.27
64499;SHT31;51087;55.718;21.122;2022-10-23T12:07:33;13.12;78.07
64499;SHT31;51087;55.718;21.122;2022-10-23T12:10:19;13.10;78.39
64499;SHT31;51087;55.718;21.122;2022-10-23T12:12:58;13.10;78.77
64499;SHT31;51087;55.718;21.122;2022-10-23T12:15:24;13.16;78.42
64499;SHT31;51087;55.718;21.122;2022-10-23T12:17:52;13.16;78.43
64499;SHT31;51087;55.718;21.122;2022-10-23T12:20:27;13.06;78.36
64499;SHT31;51087;55.718;21.122;2022-10-23T12:23:10;12.99;78.74
64499;SHT31;51087;55.718;21.122;2022-10-23T12:34:32;12.65;80.71
64499;SHT31;51087;55.718;21.122;2022-10-23T12:39:51;12.60;81.54
64499;SHT31;51087;55.718;21.122;2022-10-23T12:42:22;12.54;81.73
64499;SHT31;51087;55.718;21.122;2022-10-23T12:47:27;12.50;82.01
64499;SHT31;51087;55.718;21.122;2022-10-23T12:49:53;12.43;81.93
64499;SHT31;51087;55.718;21.122;2022-10-23T12:52:19;12.47;81.65
64499;SHT31;51087;55.718;21.122;2022-10-23T12:54:46;12.51;81.66
64499;SHT31;51087;55.718;21.122;2022-10-23T12:59:46;12.69;81.88
64499;SHT31;51087;55.718;21.122;2022-10-23T13:02:27;12.84;81.42
64499;SHT31;51087;55.718;21.122;2022-10-23T13:04:56;12.80;80.57
64499;SHT31;51087;55.718;21.122;2022-10-23T13:07:26;12.81;80.67
64499;SHT31;51087;55.718;21.122;2022-10-23T13:09:53;12.85;80.65
64499;SHT31;51087;55.718;21.122;2022-10-23T13:12:23;12.74;80.87
64499;SHT31;51087;55.718;21.122;2022-10-23T13:15:16;12.63;81.80
64499;SHT31;51087;55.718;21.122;2022-10-23T13:17:58;12.54;81.63
64499;SHT31;51087;55.718;21.122;2022-10-23T13:20:29;12.45;81.60
64499;SHT31;51087;55.718;21.122;2022-10-23T13:23:00;12.40;81.82
64499;SHT31;51087;55.718;21.122;2022-10-23T13:25:30;12.41;82.03
64499;SHT31;51087;55.718;21.122;2022-10-23T13:33:38;12.48;82.42
64499;SHT31;51087;55.718;21.122;2022-10-23T13:36:19;12.67;81.90
64499;SHT31;51087;55.718;21.122;2022-10-23T13:38:58;12.77;81.66
64499;SHT31;51087;55.718;21.122;2022-10-23T13:41:26;12.69;81.77
64499;SHT31;51087;55.718;21.122;2022-10-23T13:43:52;12.71;81.89
64499;SHT31;51087;55.718;21.122;2022-10-23T13:46:23;12.60;82.01
64499;SHT31;51087;55.718;21.122;2022-10-23T13:48:51;12.45;82.64
64499;SHT31;51087;55.718;21.122;2022-10-23T13:53:47;12.23;84.18
64499;SHT31;51087;55.718;21.122;2022-10-23T13:56:15;12.17;83.92
64499;SHT31;51087;55.718;21.122;2022-10-23T13:58:41;12.16;84.21
64499;SHT31;51087;55.718;21.122;2022-10-23T14:03:49;12.13;84.12
64499;SHT31;51087;55.718;21.122;2022-10-23T14:06:15;12.05;84.85
64499;SHT31;51087;55.718;21.122;2022-10-23T14:08:41;12.03;85.08
64499;SHT31;51087;55.718;21.122;2022-10-23T14:11:07;12.00;85.30
64499;SHT31;51087;55.718;21.122;2022-10-23T14:13:33;11.99;85.13
64499;SHT31;51087;55.718;21.122;2022-10-23T14:15:58;11.95;85.35
64499;SHT31;51087;55.718;21.122;2022-10-23T14:18:24;11.83;85.88
64499;SHT31;51087;55.718;21.122;2022-10-23T14:20:49;11.79;86.07
64499;SHT31;51087;55.718;21.122;2022-10-23T14:23:15;11.79;86.09
64499;SHT31;51087;55.718;21.122;2022-10-23T14:25:40;11.69;86.37
64499;SHT31;51087;55.718;21.122;2022-10-23T14:28:05;11.75;86.49
64499;SHT31;51087;55.718;21.122;2022-10-23T14:30:31;11.69;87.04
64499;SHT31;51087;55.718;21.122;2022-10-23T14:32:57;11.67;87.52
64499;SHT31;51087;55.718;21.122;2022-10-23T14:35:22;11.64;87.46
64499;SHT31;51087;55.718;21.122;2022-10-23T14:37:49;11.58;87.61
64499;SHT31;51087;55.718;21.122;2022-10-23T14:40:15;11.55;88.14
64499;SHT31;51087;55.718;21.122;2022-10-23T14:42:40;11.55;87.87
64499;SHT31;51087;55.718;21.122;2022-10-23T14:45:06;11.50;87.54
64499;SHT31;51087;55.718;21.122;2022-10-23T14:47:32;11.48;88.00
64499;SHT31;51087;55.718;21.122;2022-10-23T14:49:57;11.44;88.18
64499;SHT31;51087;55.718;21.122;2022-10-23T14:52:23;11.44;87.71
64499;SHT31;51087;55.718;21.122;2022-10-23T14:54:52;11.35;87.92
64499;SHT31;51087;55.718;21.122;2022-10-23T14:57:19;11.37;87.95
64499;SHT31;51087;55.718;21.122;2022-10-23T14:59:46;11.35;87.58
64499;SHT31;51087;55.718;21.122;2022-10-23T15:02:11;11.35;87.90
64499;SHT31;51087;55.718;21.122;2022-10-23T15:04:37;11.33;88.28
64499;SHT31;51087;55.718;21.122;2022-10-23T15:07:03;11.33;88.63
64499;SHT31;51087;55.718;21.122;2022-10-23T15:09:28;11.34;88.61
64499;SHT31;51087;55.718;21.122;2022-10-23T15:11:56;11.33;88.55
64499;SHT31;51087;55.718;21.122;2022-10-23T15:14:22;11.30;88.45
64499;SHT31;51087;55.718;21.122;2022-10-23T15:16:47;11.27;88.11
64499;SHT31;51087;55.718;21.122;2022-10-23T15:19:13;11.24;87.93
64499;SHT31;51087;55.718;21.122;2022-10-23T15:21:40;11.20;87.83
64499;SHT31;51087;55.718;21.122;2022-10-23T15:24:05;11.20;88.18
64499;SHT31;51087;55.718;21.122;2022-10-23T15:26:31;11.22;88.60
64499;SHT31;51087;55.718;21.122;2022-10-23T15:28:58;11.16;88.98
64499;SHT31;51087;55.718;21.122;2022-10-23T15:34:05;11.16;89.20
64499;SHT31;51087;55.718;21.122;2022-10-23T15:36:31;11.17;89.45
64499;SHT31;51087;55.718;21.122;2022-10-23T15:38:57;11.17;89.68
64499;SHT31;51087;55.718;21.122;2022-10-23T15:41:27;11.20;89.79
64499;SHT31;51087;55.718;21.122;2022-10-23T15:43:53;11.26;89.67
64499;SHT31;51087;55.718;21.122;2022-10-23T15:46:18;11.22;89.63
64499;SHT31;51087;55.718;21.122;2022-10-23T15:48:44;11.22;89.67
64499;SHT31;51087;55.718;21.122;2022-10-23T15:51:10;11.20;89.93
64499;SHT31;51087;55.718;21.122;2022-10-23T15:53:35;11.22;89.86
64499;SHT31;51087;55.718;21.122;2022-10-23T15:56:01;11.20;89.80
64499;SHT31;51087;55.718;21.122;2022-10-23T15:58:26;11.27;89.75
64499;SHT31;51087;55.718;21.122;2022-10-23T16:00:52;11.23;89.77
64499;SHT31;51087;55.718;21.122;2022-10-23T16:03:17;11.20;89.85
64499;SHT31;51087;55.718;21.122;2022-10-23T16:05:42;11.22;89.97
64499;SHT31;51087;55.718;21.122;2022-10-23T16:08:08;11.22;90.05
64499;SHT31;51087;55.718;21.122;2022-10-23T16:10:38;11.20;90.10
64499;SHT31;51087;55.718;21.122;2022-10-23T16:13:03;11.19;90.19
64499;SHT31;51087;55.718;21.122;2022-10-23T16:15:29;11.20;90.34
64499;SHT31;51087;55.718;21.122;2022-10-23T16:17:54;11.22;90.25
64499;SHT31;51087;55.718;21.122;2022-10-23T16:20:20;11.22;90.43
64499;SHT31;51087;55.718;21.122;2022-10-23T16:22:45;11.23;90.49
64499;SHT31;51087;55.718;21.122;2022-10-23T16:25:11;11.23;90.64
64499;SHT31;51087;55.718;21.122;2022-10-23T16:27:37;11.24;90.77
64499;SHT31;51087;55.718;21.122;2022-10-23T16:30:03;11.28;90.90
64499;SHT31;51087;55.718;21.122;2022-10-23T16:32:30;11.27;90.94
64499;SHT31;51087;55.718;21.122;2022-10-23T16:34:55;11.33;90.88
64499;SHT31;51087;55.718;21.122;2022-10-23T16:37:21;11.30;90.91
64499;SHT31;51087;55.718;21.122;2022-10-23T16:39:46;11.26;91.00
64499;SHT31;51087;55.718;21.122;2022-10-23T16:42:11;11.28;91.00
64499;SHT31;51087;55.718;21.122;2022-10-23T16:44:37;11.31;91.07
64499;SHT31;51087;55.718;21.122;2022-10-23T16:47:02;11.30;91.16
64499;SHT31;51087;55.718;21.122;2022-10-23T16:49:28;11.28;91.34
64499;SHT31;51087;55.718;21.122;2022-10-23T16:51:55;11.27;91.44
64499;SHT31;51087;55.718;21.122;2022-10-23T16:54:20;11.30;91.62
64499;SHT31;51087;55.718;21.122;2022-10-23T16:56:46;11.28;91.79
64499;SHT31;51087;55.718;21.122;2022-10-23T16:59:12;11.28;91.93
64499;SHT31;51087;55.718;21.122;2022-10-23T17:01:38;11.30;91.97
64499;SHT31;51087;55.718;21.122;2022-10-23T17:04:04;11.33;91.93
64499;SHT31;51087;55.718;21.122;2022-10-23T17:06:31;11.33;91.82
64499;SHT31;51087;55.718;21.122;2022-10-23T17:08:58;11.28;91.72
64499;SHT31;51087;55.718;21.122;2022-10-23T17:11:43;11.28;91.79
64499;SHT31;51087;55.718;21.122;2022-10-23T17:14:17;11.24;92.18
64499;SHT31;51087;55.718;21.122;2022-10-23T17:16:45;11.20;92.10
64499;SHT31;51087;55.718;21.122;2022-10-23T17:19:12;11.09;92.26
64499;SHT31;51087;55.718;21.122;2022-10-23T17:21:39;10.99;92.41
64499;SHT31;51087;55.718;21.122;2022-10-23T17:24:08;10.89;92.66
64499;SHT31;51087;55.718;21.122;2022-10-23T17:26:37;10.78;93.11
64499;SHT31;51087;55.718;21.122;2022-10-23T17:29:05;10.67;93.67
64499;SHT31;51087;55.718;21.122;2022-10-23T17:31:33;10.71;93.76
64499;SHT31;51087;55.718;21.122;2022-10-23T17:34:01;10.68;93.69
64499;SHT31;51087;55.718;21.122;2022-10-23T17:36:30;10.71;93.71